Terminal Aerodrome Forecast
Issued by NWS

Home | Current Version | Previous Version | Text Only | Print | Product List | Glossary On
Versions: 1 2 3 4 5 6 7 8 9 10 11 12 13 14
000
FTUS45 KREV 200500
TAFMMH
TAF
KMMH 200523Z 2006/2106 28007KT P6SM FEW080 BKN120
     FM200800 VRB03KT P6SM SCT120 SCT180
     FM201700 11007KT P6SM FEW120 SCT180
     FM202200 26011G19KT P6SM SCT100 SCT180
     FM210400 30008KT P6SM FEW100 SCT180
      AMD NOT SKED 2006/2014=

USA.gov is the U.S. government's official web portal to all federal, state and local government web resources and services.